sensor_id;sensor_type;location;lat;lon;timestamp;P1;durP1;ratioP1;P2;durP2;ratioP2
13345;SDS011;6742;48.036;15.780;2022-12-08T00:01:29;336.67;;;319.23;;
13345;SDS011;6742;48.036;15.780;2022-12-08T00:03:57;339.73;;;322.23;;
13345;SDS011;6742;48.036;15.780;2022-12-08T00:06:25;338.95;;;321.02;;
13345;SDS011;6742;48.036;15.780;2022-12-08T00:09:14;321.70;;;305.25;;
13345;SDS011;6742;48.036;15.780;2022-12-08T00:11:52;288.10;;;273.73;;
13345;SDS011;6742;48.036;15.780;2022-12-08T00:14:27;264.50;;;251.33;;
13345;SDS011;6742;48.036;15.780;2022-12-08T00:16:56;256.33;;;243.40;;
13345;SDS011;6742;48.036;15.780;2022-12-08T00:19:24;225.63;;;214.32;;
13345;SDS011;6742;48.036;15.780;2022-12-08T00:21:52;240.65;;;228.70;;
13345;SDS011;6742;48.036;15.780;2022-12-08T00:24:20;243.32;;;231.18;;
13345;SDS011;6742;48.036;15.780;2022-12-08T00:26:53;242.80;;;230.73;;
13345;SDS011;6742;48.036;15.780;2022-12-08T00:29:20;294.92;;;280.10;;
13345;SDS011;6742;48.036;15.780;2022-12-08T00:31:47;310.63;;;294.80;;
13345;SDS011;6742;48.036;15.780;2022-12-08T00:34:18;305.38;;;290.10;;
13345;SDS011;6742;48.036;15.780;2022-12-08T00:36:45;286.73;;;272.37;;
13345;SDS011;6742;48.036;15.780;2022-12-08T00:39:18;302.97;;;287.47;;
13345;SDS011;6742;48.036;15.780;2022-12-08T00:41:45;294.15;;;279.33;;
13345;SDS011;6742;48.036;15.780;2022-12-08T00:44:31;291.95;;;277.15;;
13345;SDS011;6742;48.036;15.780;2022-12-08T00:46:58;307.23;;;291.85;;
13345;SDS011;6742;48.036;15.780;2022-12-08T00:49:25;290.65;;;276.17;;
13345;SDS011;6742;48.036;15.780;2022-12-08T00:51:52;285.65;;;271.35;;
13345;SDS011;6742;48.036;15.780;2022-12-08T00:54:19;294.83;;;279.98;;
13345;SDS011;6742;48.036;15.780;2022-12-08T00:56:50;287.33;;;272.85;;
13345;SDS011;6742;48.036;15.780;2022-12-08T00:59:19;305.05;;;289.92;;
13345;SDS011;6742;48.036;15.780;2022-12-08T01:01:48;277.75;;;264.00;;
13345;SDS011;6742;48.036;15.780;2022-12-08T01:04:16;273.48;;;260.02;;
13345;SDS011;6742;48.036;15.780;2022-12-08T01:06:44;246.38;;;234.38;;
13345;SDS011;6742;48.036;15.780;2022-12-08T01:09:12;250.75;;;238.32;;
13345;SDS011;6742;48.036;15.780;2022-12-08T01:11:43;242.50;;;230.45;;
13345;SDS011;6742;48.036;15.780;2022-12-08T01:14:10;207.82;;;197.63;;
13345;SDS011;6742;48.036;15.780;2022-12-08T01:16:38;213.30;;;202.73;;
13345;SDS011;6742;48.036;15.780;2022-12-08T01:19:07;196.10;;;186.55;;
13345;SDS011;6742;48.036;15.780;2022-12-08T01:21:35;186.83;;;177.73;;
13345;SDS011;6742;48.036;15.780;2022-12-08T01:24:03;198.57;;;189.10;;
13345;SDS011;6742;48.036;15.780;2022-12-08T01:26:30;167.70;;;159.65;;
13345;SDS011;6742;48.036;15.780;2022-12-08T01:28:57;241.97;;;230.13;;
13345;SDS011;6742;48.036;15.780;2022-12-08T01:31:24;140.80;;;134.20;;
13345;SDS011;6742;48.036;15.780;2022-12-08T01:33:51;178.40;;;169.57;;
13345;SDS011;6742;48.036;15.780;2022-12-08T01:36:20;251.87;;;238.80;;
13345;SDS011;6742;48.036;15.780;2022-12-08T01:38:48;245.13;;;232.20;;
13345;SDS011;6742;48.036;15.780;2022-12-08T01:41:17;296.83;;;281.07;;
13345;SDS011;6742;48.036;15.780;2022-12-08T01:43:56;332.33;;;313.80;;
13345;SDS011;6742;48.036;15.780;2022-12-08T01:46:25;303.10;;;286.73;;
13345;SDS011;6742;48.036;15.780;2022-12-08T01:48:55;399.00;;;379.13;;
13345;SDS011;6742;48.036;15.780;2022-12-08T01:51:28;392.83;;;373.63;;
13345;SDS011;6742;48.036;15.780;2022-12-08T01:53:58;425.73;;;404.47;;
13345;SDS011;6742;48.036;15.780;2022-12-08T01:56:27;481.53;;;457.53;;
13345;SDS011;6742;48.036;15.780;2022-12-08T01:58:57;354.30;;;337.37;;
13345;SDS011;6742;48.036;15.780;2022-12-08T02:01:25;269.73;;;256.77;;
13345;SDS011;6742;48.036;15.780;2022-12-08T02:03:53;291.87;;;276.83;;
13345;SDS011;6742;48.036;15.780;2022-12-08T02:06:24;424.33;;;399.53;;
13345;SDS011;6742;48.036;15.780;2022-12-08T02:08:53;381.70;;;361.23;;
13345;SDS011;6742;48.036;15.780;2022-12-08T02:11:21;348.10;;;329.33;;
13345;SDS011;6742;48.036;15.780;2022-12-08T02:13:48;291.20;;;277.53;;
13345;SDS011;6742;48.036;15.780;2022-12-08T02:16:20;259.77;;;247.80;;
13345;SDS011;6742;48.036;15.780;2022-12-08T02:19:05;365.97;;;345.63;;
13345;SDS011;6742;48.036;15.780;2022-12-08T02:21:55;205.37;;;195.73;;
13345;SDS011;6742;48.036;15.780;2022-12-08T02:24:33;229.33;;;218.87;;
13345;SDS011;6742;48.036;15.780;2022-12-08T02:27:17;258.67;;;246.87;;
13345;SDS011;6742;48.036;15.780;2022-12-08T02:30:06;189.40;;;180.67;;
13345;SDS011;6742;48.036;15.780;2022-12-08T02:32:54;214.77;;;204.97;;
13345;SDS011;6742;48.036;15.780;2022-12-08T02:35:40;110.23;;;105.07;;
13345;SDS011;6742;48.036;15.780;2022-12-08T02:38:14;156.57;;;149.43;;
13345;SDS011;6742;48.036;15.780;2022-12-08T02:40:49;413.53;;;389.63;;
13345;SDS011;6742;48.036;15.780;2022-12-08T02:43:26;325.93;;;308.60;;
13345;SDS011;6742;48.036;15.780;2022-12-08T02:45:58;338.40;;;320.43;;
13345;SDS011;6742;48.036;15.780;2022-12-08T02:48:28;297.20;;;281.67;;
13345;SDS011;6742;48.036;15.780;2022-12-08T02:50:57;121.63;;;116.13;;
13345;SDS011;6742;48.036;15.780;2022-12-08T02:53:24;326.47;;;309.33;;
13345;SDS011;6742;48.036;15.780;2022-12-08T02:55:55;117.27;;;111.93;;
13345;SDS011;6742;48.036;15.780;2022-12-08T02:58:41;123.90;;;118.40;;
13345;SDS011;6742;48.036;15.780;2022-12-08T03:01:24;121.77;;;116.27;;
13345;SDS011;6742;48.036;15.780;2022-12-08T03:04:04;76.77;;;73.17;;
13345;SDS011;6742;48.036;15.780;2022-12-08T03:06:39;98.03;;;93.55;;
13345;SDS011;6742;48.036;15.780;2022-12-08T03:09:13;99.60;;;95.07;;
13345;SDS011;6742;48.036;15.780;2022-12-08T03:11:46;92.90;;;88.70;;
13345;SDS011;6742;48.036;15.780;2022-12-08T03:14:20;434.43;;;408.43;;
13345;SDS011;6742;48.036;15.780;2022-12-08T03:16:48;317.93;;;300.50;;
13345;SDS011;6742;48.036;15.780;2022-12-08T03:19:22;84.47;;;80.53;;
13345;SDS011;6742;48.036;15.780;2022-12-08T03:21:53;105.07;;;100.45;;
13345;SDS011;6742;48.036;15.780;2022-12-08T03:24:27;82.13;;;78.23;;
13345;SDS011;6742;48.036;15.780;2022-12-08T03:26:56;307.87;;;291.33;;
13345;SDS011;6742;48.036;15.780;2022-12-08T03:29:27;69.97;;;66.77;;
13345;SDS011;6742;48.036;15.780;2022-12-08T03:31:56;77.13;;;73.63;;
13345;SDS011;6742;48.036;15.780;2022-12-08T03:34:26;308.30;;;292.83;;
13345;SDS011;6742;48.036;15.780;2022-12-08T03:36:56;334.70;;;316.57;;
13345;SDS011;6742;48.036;15.780;2022-12-08T03:39:26;301.77;;;286.20;;
13345;SDS011;6742;48.036;15.780;2022-12-08T03:41:53;294.23;;;279.03;;
13345;SDS011;6742;48.036;15.780;2022-12-08T03:44:20;71.00;;;67.73;;
13345;SDS011;6742;48.036;15.780;2022-12-08T03:46:46;89.13;;;85.27;;
13345;SDS011;6742;48.036;15.780;2022-12-08T03:49:13;67.93;;;64.83;;
13345;SDS011;6742;48.036;15.780;2022-12-08T03:51:40;68.85;;;65.72;;
13345;SDS011;6742;48.036;15.780;2022-12-08T03:54:09;279.60;;;265.20;;
13345;SDS011;6742;48.036;15.780;2022-12-08T03:56:36;324.10;;;306.77;;
13345;SDS011;6742;48.036;15.780;2022-12-08T03:59:04;389.00;;;366.90;;
13345;SDS011;6742;48.036;15.780;2022-12-08T04:01:32;427.60;;;402.43;;
13345;SDS011;6742;48.036;15.780;2022-12-08T04:03:59;319.77;;;303.00;;
13345;SDS011;6742;48.036;15.780;2022-12-08T04:06:26;306.83;;;290.33;;
13345;SDS011;6742;48.036;15.780;2022-12-08T04:08:53;283.50;;;269.53;;
13345;SDS011;6742;48.036;15.780;2022-12-08T04:11:21;290.03;;;275.37;;
13345;SDS011;6742;48.036;15.780;2022-12-08T04:13:48;75.00;;;71.73;;
13345;SDS011;6742;48.036;15.780;2022-12-08T04:16:15;84.30;;;80.80;;
13345;SDS011;6742;48.036;15.780;2022-12-08T04:18:44;320.43;;;303.57;;
13345;SDS011;6742;48.036;15.780;2022-12-08T04:21:11;336.73;;;318.20;;
13345;SDS011;6742;48.036;15.780;2022-12-08T04:23:38;424.93;;;400.27;;
13345;SDS011;6742;48.036;15.780;2022-12-08T04:26:05;467.93;;;438.33;;
13345;SDS011;6742;48.036;15.780;2022-12-08T04:28:34;345.43;;;326.93;;
13345;SDS011;6742;48.036;15.780;2022-12-08T04:31:01;78.13;;;74.70;;
13345;SDS011;6742;48.036;15.780;2022-12-08T04:33:28;81.70;;;78.23;;
13345;SDS011;6742;48.036;15.780;2022-12-08T04:35:55;308.83;;;292.37;;
13345;SDS011;6742;48.036;15.780;2022-12-08T04:38:22;359.83;;;340.43;;
13345;SDS011;6742;48.036;15.780;2022-12-08T04:40:49;285.03;;;270.77;;
13345;SDS011;6742;48.036;15.780;2022-12-08T04:43:16;407.63;;;383.93;;
13345;SDS011;6742;48.036;15.780;2022-12-08T04:45:44;83.60;;;80.00;;
13345;SDS011;6742;48.036;15.780;2022-12-08T04:48:11;90.97;;;87.10;;
13345;SDS011;6742;48.036;15.780;2022-12-08T04:50:39;337.93;;;320.07;;
13345;SDS011;6742;48.036;15.780;2022-12-08T04:53:07;304.80;;;289.13;;
13345;SDS011;6742;48.036;15.780;2022-12-08T04:55:36;289.90;;;275.40;;
13345;SDS011;6742;48.036;15.780;2022-12-08T04:58:03;295.43;;;280.67;;
13345;SDS011;6742;48.036;15.780;2022-12-08T05:00:30;72.70;;;69.53;;
13345;SDS011;6742;48.036;15.780;2022-12-08T05:02:59;79.70;;;76.23;;
13345;SDS011;6742;48.036;15.780;2022-12-08T05:05:25;303.53;;;287.30;;
13345;SDS011;6742;48.036;15.780;2022-12-08T05:07:52;311.13;;;294.73;;
13345;SDS011;6742;48.036;15.780;2022-12-08T05:10:19;81.13;;;77.57;;
13345;SDS011;6742;48.036;15.780;2022-12-08T05:12:46;442.27;;;412.80;;
13345;SDS011;6742;48.036;15.780;2022-12-08T05:15:13;363.07;;;344.03;;
13345;SDS011;6742;48.036;15.780;2022-12-08T05:17:40;443.57;;;417.97;;
13345;SDS011;6742;48.036;15.780;2022-12-08T05:20:12;493.17;;;462.13;;
13345;SDS011;6742;48.036;15.780;2022-12-08T05:22:39;372.40;;;352.13;;
13345;SDS011;6742;48.036;15.780;2022-12-08T05:25:06;86.37;;;82.50;;
13345;SDS011;6742;48.036;15.780;2022-12-08T05:27:33;77.10;;;73.73;;
13345;SDS011;6742;48.036;15.780;2022-12-08T05:30:00;83.30;;;79.57;;
13345;SDS011;6742;48.036;15.780;2022-12-08T05:32:27;84.63;;;80.93;;
13345;SDS011;6742;48.036;15.780;2022-12-08T05:34:54;78.50;;;74.53;;
13345;SDS011;6742;48.036;15.780;2022-12-08T05:37:25;66.87;;;63.73;;
13345;SDS011;6742;48.036;15.780;2022-12-08T05:39:52;276.20;;;262.30;;
13345;SDS011;6742;48.036;15.780;2022-12-08T05:42:20;242.10;;;230.23;;
13345;SDS011;6742;48.036;15.780;2022-12-08T05:44:47;284.00;;;269.70;;
13345;SDS011;6742;48.036;15.780;2022-12-08T05:47:14;392.03;;;370.27;;
13345;SDS011;6742;48.036;15.780;2022-12-08T05:49:41;95.10;;;90.70;;
13345;SDS011;6742;48.036;15.780;2022-12-08T05:52:07;94.80;;;90.70;;
13345;SDS011;6742;48.036;15.780;2022-12-08T05:54:36;91.93;;;88.00;;
13345;SDS011;6742;48.036;15.780;2022-12-08T05:57:03;83.72;;;80.13;;
13345;SDS011;6742;48.036;15.780;2022-12-08T05:59:30;433.00;;;407.83;;
13345;SDS011;6742;48.036;15.780;2022-12-08T06:01:57;84.03;;;80.27;;
13345;SDS011;6742;48.036;15.780;2022-12-08T06:04:23;360.07;;;340.70;;
13345;SDS011;6742;48.036;15.780;2022-12-08T06:06:50;332.20;;;314.77;;
13345;SDS011;6742;48.036;15.780;2022-12-08T06:09:17;455.30;;;427.80;;
13345;SDS011;6742;48.036;15.780;2022-12-08T06:11:46;347.60;;;329.17;;
13345;SDS011;6742;48.036;15.780;2022-12-08T06:14:12;77.67;;;74.13;;
13345;SDS011;6742;48.036;15.780;2022-12-08T06:16:46;78.77;;;75.20;;
13345;SDS011;6742;48.036;15.780;2022-12-08T06:19:14;82.18;;;78.45;;
13345;SDS011;6742;48.036;15.780;2022-12-08T06:21:41;84.73;;;80.67;;
13345;SDS011;6742;48.036;15.780;2022-12-08T06:24:08;102.10;;;97.60;;
13345;SDS011;6742;48.036;15.780;2022-12-08T06:26:35;78.70;;;75.07;;
13345;SDS011;6742;48.036;15.780;2022-12-08T06:29:03;77.00;;;73.60;;
13345;SDS011;6742;48.036;15.780;2022-12-08T06:31:30;78.93;;;75.30;;
13345;SDS011;6742;48.036;15.780;2022-12-08T06:33:57;81.63;;;77.83;;
13345;SDS011;6742;48.036;15.780;2022-12-08T06:36:25;95.77;;;91.63;;
13345;SDS011;6742;48.036;15.780;2022-12-08T06:38:54;94.53;;;90.57;;
13345;SDS011;6742;48.036;15.780;2022-12-08T06:41:22;341.97;;;323.10;;
13345;SDS011;6742;48.036;15.780;2022-12-08T06:43:49;76.03;;;72.77;;
13345;SDS011;6742;48.036;15.780;2022-12-08T06:46:18;292.03;;;277.00;;
13345;SDS011;6742;48.036;15.780;2022-12-08T06:48:45;341.60;;;323.80;;
13345;SDS011;6742;48.036;15.780;2022-12-08T06:51:15;85.27;;;81.63;;
13345;SDS011;6742;48.036;15.780;2022-12-08T06:53:43;97.23;;;93.23;;
13345;SDS011;6742;48.036;15.780;2022-12-08T06:56:11;80.07;;;76.73;;
13345;SDS011;6742;48.036;15.780;2022-12-08T06:58:39;68.80;;;65.80;;
13345;SDS011;6742;48.036;15.780;2022-12-08T07:01:07;64.53;;;61.27;;
13345;SDS011;6742;48.036;15.780;2022-12-08T07:03:38;73.33;;;70.20;;
13345;SDS011;6742;48.036;15.780;2022-12-08T07:06:08;84.97;;;81.40;;
13345;SDS011;6742;48.036;15.780;2022-12-08T07:08:40;65.83;;;62.93;;
13345;SDS011;6742;48.036;15.780;2022-12-08T07:11:07;86.57;;;82.90;;
13345;SDS011;6742;48.036;15.780;2022-12-08T07:13:35;83.22;;;79.22;;
13345;SDS011;6742;48.036;15.780;2022-12-08T07:16:03;88.63;;;84.57;;
13345;SDS011;6742;48.036;15.780;2022-12-08T07:18:32;88.27;;;84.30;;
13345;SDS011;6742;48.036;15.780;2022-12-08T07:21:02;52.88;;;50.28;;
13345;SDS011;6742;48.036;15.780;2022-12-08T07:23:31;131.30;;;125.28;;
13345;SDS011;6742;48.036;15.780;2022-12-08T07:25:59;200.60;;;191.05;;
13345;SDS011;6742;48.036;15.780;2022-12-08T07:28:28;206.23;;;196.48;;
13345;SDS011;6742;48.036;15.780;2022-12-08T07:30:56;219.15;;;208.57;;
13345;SDS011;6742;48.036;15.780;2022-12-08T07:33:23;228.35;;;217.38;;
13345;SDS011;6742;48.036;15.780;2022-12-08T07:35:53;219.20;;;208.63;;
13345;SDS011;6742;48.036;15.780;2022-12-08T07:38:22;194.57;;;185.35;;
13345;SDS011;6742;48.036;15.780;2022-12-08T07:40:50;186.82;;;177.82;;
13345;SDS011;6742;48.036;15.780;2022-12-08T07:43:17;209.18;;;198.98;;
13345;SDS011;6742;48.036;15.780;2022-12-08T07:45:45;230.45;;;217.20;;
13345;SDS011;6742;48.036;15.780;2022-12-08T07:48:12;200.98;;;189.63;;
13345;SDS011;6742;48.036;15.780;2022-12-08T07:50:40;189.70;;;180.48;;
13345;SDS011;6742;48.036;15.780;2022-12-08T07:53:07;196.25;;;185.48;;
13345;SDS011;6742;48.036;15.780;2022-12-08T07:55:39;176.70;;;167.40;;
13345;SDS011;6742;48.036;15.780;2022-12-08T07:58:06;175.18;;;166.75;;
13345;SDS011;6742;48.036;15.780;2022-12-08T08:00:33;163.15;;;154.68;;
13345;SDS011;6742;48.036;15.780;2022-12-08T08:03:00;144.15;;;137.55;;
13345;SDS011;6742;48.036;15.780;2022-12-08T08:05:27;134.07;;;127.72;;
13345;SDS011;6742;48.036;15.780;2022-12-08T08:07:54;139.73;;;133.27;;
13345;SDS011;6742;48.036;15.780;2022-12-08T08:10:21;129.38;;;123.47;;
13345;SDS011;6742;48.036;15.780;2022-12-08T08:12:54;136.40;;;130.30;;
13345;SDS011;6742;48.036;15.780;2022-12-08T08:15:24;132.57;;;126.72;;
13345;SDS011;6742;48.036;15.780;2022-12-08T08:17:54;137.55;;;131.40;;
13345;SDS011;6742;48.036;15.780;2022-12-08T08:20:21;131.93;;;126.03;;
13345;SDS011;6742;48.036;15.780;2022-12-08T08:22:48;132.40;;;126.47;;
13345;SDS011;6742;48.036;15.780;2022-12-08T08:25:16;142.63;;;136.30;;
13345;SDS011;6742;48.036;15.780;2022-12-08T08:27:46;134.97;;;129.17;;
13345;SDS011;6742;48.036;15.780;2022-12-08T08:30:17;150.80;;;144.03;;
13345;SDS011;6742;48.036;15.780;2022-12-08T08:32:44;183.77;;;174.93;;
13345;SDS011;6742;48.036;15.780;2022-12-08T08:35:12;148.20;;;141.90;;
13345;SDS011;6742;48.036;15.780;2022-12-08T08:37:39;137.20;;;131.27;;
13345;SDS011;6742;48.036;15.780;2022-12-08T08:40:08;160.53;;;153.43;;
13345;SDS011;6742;48.036;15.780;2022-12-08T08:42:36;145.57;;;138.97;;
13345;SDS011;6742;48.036;15.780;2022-12-08T08:54:52;153.33;;;146.40;;
13345;SDS011;6742;48.036;15.780;2022-12-08T08:59:46;143.37;;;137.00;;
13345;SDS011;6742;48.036;15.780;2022-12-08T09:02:14;161.17;;;153.67;;
13345;SDS011;6742;48.036;15.780;2022-12-08T09:04:44;153.83;;;146.83;;
13345;SDS011;6742;48.036;15.780;2022-12-08T09:07:11;146.20;;;139.67;;
13345;SDS011;6742;48.036;15.780;2022-12-08T09:14:33;138.77;;;132.47;;
13345;SDS011;6742;48.036;15.780;2022-12-08T09:17:00;199.83;;;190.23;;
13345;SDS011;6742;48.036;15.780;2022-12-08T09:19:27;193.20;;;183.77;;
13345;SDS011;6742;48.036;15.780;2022-12-08T09:21:55;179.03;;;170.77;;
13345;SDS011;6742;48.036;15.780;2022-12-08T09:24:25;161.07;;;153.33;;
13345;SDS011;6742;48.036;15.780;2022-12-08T09:26:52;174.00;;;165.77;;
13345;SDS011;6742;48.036;15.780;2022-12-08T09:29:19;200.53;;;190.77;;
13345;SDS011;6742;48.036;15.780;2022-12-08T09:31:46;186.23;;;177.53;;
13345;SDS011;6742;48.036;15.780;2022-12-08T09:34:13;220.87;;;209.90;;
13345;SDS011;6742;48.036;15.780;2022-12-08T09:36:40;188.10;;;179.00;;
13345;SDS011;6742;48.036;15.780;2022-12-08T09:39:08;214.37;;;203.83;;
13345;SDS011;6742;48.036;15.780;2022-12-08T09:41:35;183.23;;;174.47;;
13345;SDS011;6742;48.036;15.780;2022-12-08T09:44:18;229.60;;;218.27;;
13345;SDS011;6742;48.036;15.780;2022-12-08T09:47:11;164.13;;;156.43;;
13345;SDS011;6742;48.036;15.780;2022-12-08T09:49:48;173.53;;;165.00;;
13345;SDS011;6742;48.036;15.780;2022-12-08T09:52:24;174.30;;;165.97;;
13345;SDS011;6742;48.036;15.780;2022-12-08T09:54:54;184.30;;;175.77;;
13345;SDS011;6742;48.036;15.780;2022-12-08T09:57:24;187.13;;;178.07;;
13345;SDS011;6742;48.036;15.780;2022-12-08T09:59:52;171.27;;;162.67;;
13345;SDS011;6742;48.036;15.780;2022-12-08T10:02:23;186.80;;;178.13;;
13345;SDS011;6742;48.036;15.780;2022-12-08T10:04:53;250.90;;;238.13;;
13345;SDS011;6742;48.036;15.780;2022-12-08T10:07:23;227.30;;;215.83;;
13345;SDS011;6742;48.036;15.780;2022-12-08T10:09:58;202.03;;;192.23;;
13345;SDS011;6742;48.036;15.780;2022-12-08T10:12:33;225.90;;;214.70;;
13345;SDS011;6742;48.036;15.780;2022-12-08T10:15:09;184.67;;;175.90;;
13345;SDS011;6742;48.036;15.780;2022-12-08T10:17:55;168.47;;;160.40;;
13345;SDS011;6742;48.036;15.780;2022-12-08T10:20:25;212.23;;;201.50;;
13345;SDS011;6742;48.036;15.780;2022-12-08T10:23:02;233.57;;;221.70;;
13345;SDS011;6742;48.036;15.780;2022-12-08T10:25:36;234.50;;;222.73;;
13345;SDS011;6742;48.036;15.780;2022-12-08T10:28:06;198.83;;;189.40;;
13345;SDS011;6742;48.036;15.780;2022-12-08T10:30:34;172.93;;;164.73;;
13345;SDS011;6742;48.036;15.780;2022-12-08T10:33:01;147.70;;;140.73;;
13345;SDS011;6742;48.036;15.780;2022-12-08T10:35:41;150.80;;;143.73;;
13345;SDS011;6742;48.036;15.780;2022-12-08T10:38:15;163.77;;;155.77;;
13345;SDS011;6742;48.036;15.780;2022-12-08T10:40:46;200.67;;;190.97;;
13345;SDS011;6742;48.036;15.780;2022-12-08T10:43:16;225.37;;;214.40;;
13345;SDS011;6742;48.036;15.780;2022-12-08T10:45:46;202.20;;;192.43;;
13345;SDS011;6742;48.036;15.780;2022-12-08T10:48:16;227.93;;;216.77;;
13345;SDS011;6742;48.036;15.780;2022-12-08T10:50:45;189.93;;;180.73;;
13345;SDS011;6742;48.036;15.780;2022-12-08T10:53:14;191.20;;;182.23;;
13345;SDS011;6742;48.036;15.780;2022-12-08T10:55:47;162.60;;;154.87;;
13345;SDS011;6742;48.036;15.780;2022-12-08T11:01:05;158.63;;;151.20;;
13345;SDS011;6742;48.036;15.780;2022-12-08T11:03:43;121.37;;;115.73;;
13345;SDS011;6742;48.036;15.780;2022-12-08T11:06:14;137.37;;;131.00;;
13345;SDS011;6742;48.036;15.780;2022-12-08T11:08:46;137.93;;;131.30;;
13345;SDS011;6742;48.036;15.780;2022-12-08T11:11:18;171.53;;;163.23;;
13345;SDS011;6742;48.036;15.780;2022-12-08T11:13:46;199.20;;;189.27;;
13345;SDS011;6742;48.036;15.780;2022-12-08T11:16:15;154.33;;;147.00;;
13345;SDS011;6742;48.036;15.780;2022-12-08T11:18:44;163.80;;;155.90;;
13345;SDS011;6742;48.036;15.780;2022-12-08T11:21:15;193.47;;;184.27;;
13345;SDS011;6742;48.036;15.780;2022-12-08T11:23:45;159.80;;;152.03;;
13345;SDS011;6742;48.036;15.780;2022-12-08T11:26:16;153.43;;;146.37;;
13345;SDS011;6742;48.036;15.780;2022-12-08T11:28:51;119.73;;;114.17;;
13345;SDS011;6742;48.036;15.780;2022-12-08T11:31:21;140.60;;;134.07;;
13345;SDS011;6742;48.036;15.780;2022-12-08T11:33:54;148.90;;;141.83;;
13345;SDS011;6742;48.036;15.780;2022-12-08T11:36:22;108.80;;;103.90;;
13345;SDS011;6742;48.036;15.780;2022-12-08T11:38:55;120.03;;;114.57;;
13345;SDS011;6742;48.036;15.780;2022-12-08T11:41:25;135.50;;;129.17;;
13345;SDS011;6742;48.036;15.780;2022-12-08T11:43:57;138.37;;;130.80;;
13345;SDS011;6742;48.036;15.780;2022-12-08T11:46:31;121.03;;;114.73;;
13345;SDS011;6742;48.036;15.780;2022-12-08T11:49:04;128.03;;;122.10;;
13345;SDS011;6742;48.036;15.780;2022-12-08T11:51:36;124.00;;;118.17;;
13345;SDS011;6742;48.036;15.780;2022-12-08T11:54:12;125.90;;;120.13;;
13345;SDS011;6742;48.036;15.780;2022-12-08T11:56:47;133.70;;;127.53;;
13345;SDS011;6742;48.036;15.780;2022-12-08T11:59:27;153.80;;;144.93;;
13345;SDS011;6742;48.036;15.780;2022-12-08T12:01:56;109.77;;;104.73;;
13345;SDS011;6742;48.036;15.780;2022-12-08T12:04:26;106.57;;;101.63;;
13345;SDS011;6742;48.036;15.780;2022-12-08T12:09:54;102.37;;;97.57;;
13345;SDS011;6742;48.036;15.780;2022-12-08T12:12:38;105.33;;;100.60;;
13345;SDS011;6742;48.036;15.780;2022-12-08T12:15:38;98.90;;;94.33;;
13345;SDS011;6742;48.036;15.780;2022-12-08T12:18:30;98.67;;;94.07;;
13345;SDS011;6742;48.036;15.780;2022-12-08T12:21:04;114.97;;;109.63;;
13345;SDS011;6742;48.036;15.780;2022-12-08T12:23:37;117.13;;;111.73;;
13345;SDS011;6742;48.036;15.780;2022-12-08T12:26:08;113.80;;;108.63;;
13345;SDS011;6742;48.036;15.780;2022-12-08T12:28:46;119.77;;;114.17;;
13345;SDS011;6742;48.036;15.780;2022-12-08T12:31:17;126.67;;;120.73;;
13345;SDS011;6742;48.036;15.780;2022-12-08T12:33:49;119.33;;;113.83;;
13345;SDS011;6742;48.036;15.780;2022-12-08T12:36:21;109.53;;;104.63;;
13345;SDS011;6742;48.036;15.780;2022-12-08T12:38:50;110.97;;;105.97;;
13345;SDS011;6742;48.036;15.780;2022-12-08T12:41:31;111.97;;;106.87;;
13345;SDS011;6742;48.036;15.780;2022-12-08T12:47:13;108.23;;;103.40;;
13345;SDS011;6742;48.036;15.780;2022-12-08T12:50:11;126.90;;;120.90;;
13345;SDS011;6742;48.036;15.780;2022-12-08T12:52:45;120.57;;;114.97;;
13345;SDS011;6742;48.036;15.780;2022-12-08T13:04:18;107.97;;;102.97;;
13345;SDS011;6742;48.036;15.780;2022-12-08T13:06:46;109.47;;;104.37;;
13345;SDS011;6742;48.036;15.780;2022-12-08T13:09:19;114.20;;;108.87;;
13345;SDS011;6742;48.036;15.780;2022-12-08T13:11:49;115.33;;;110.10;;
13345;SDS011;6742;48.036;15.780;2022-12-08T13:14:28;113.90;;;108.57;;
13345;SDS011;6742;48.036;15.780;2022-12-08T13:17:00;110.13;;;104.93;;
13345;SDS011;6742;48.036;15.780;2022-12-08T13:19:33;101.03;;;96.37;;
13345;SDS011;6742;48.036;15.780;2022-12-08T13:22:02;117.33;;;111.90;;
13345;SDS011;6742;48.036;15.780;2022-12-08T13:24:31;124.20;;;118.33;;
13345;SDS011;6742;48.036;15.780;2022-12-08T13:33:09;140.33;;;133.70;;
13345;SDS011;6742;48.036;15.780;2022-12-08T13:35:43;137.97;;;131.27;;
13345;SDS011;6742;48.036;15.780;2022-12-08T13:38:21;145.87;;;138.90;;
13345;SDS011;6742;48.036;15.780;2022-12-08T13:40:53;129.40;;;123.40;;
13345;SDS011;6742;48.036;15.780;2022-12-08T13:43:24;144.73;;;137.73;;
13345;SDS011;6742;48.036;15.780;2022-12-08T13:45:59;143.17;;;136.10;;
13345;SDS011;6742;48.036;15.780;2022-12-08T13:48:31;115.03;;;109.63;;
13345;SDS011;6742;48.036;15.780;2022-12-08T13:51:10;136.57;;;129.97;;
13345;SDS011;6742;48.036;15.780;2022-12-08T13:53:42;139.40;;;132.80;;
13345;SDS011;6742;48.036;15.780;2022-12-08T13:56:15;140.93;;;134.10;;
13345;SDS011;6742;48.036;15.780;2022-12-08T13:58:43;151.23;;;144.27;;
13345;SDS011;6742;48.036;15.780;2022-12-08T14:01:11;157.37;;;149.97;;
13345;SDS011;6742;48.036;15.780;2022-12-08T14:03:46;141.40;;;134.60;;
13345;SDS011;6742;48.036;15.780;2022-12-08T14:06:19;132.70;;;126.23;;
13345;SDS011;6742;48.036;15.780;2022-12-08T14:08:53;117.23;;;111.73;;
13345;SDS011;6742;48.036;15.780;2022-12-08T14:11:24;96.80;;;92.30;;
13345;SDS011;6742;48.036;15.780;2022-12-08T14:14:00;122.33;;;116.60;;
13345;SDS011;6742;48.036;15.780;2022-12-08T14:16:31;140.33;;;133.60;;
13345;SDS011;6742;48.036;15.780;2022-12-08T14:19:15;146.00;;;138.90;;
13345;SDS011;6742;48.036;15.780;2022-12-08T14:21:49;107.43;;;102.23;;
13345;SDS011;6742;48.036;15.780;2022-12-08T14:24:20;143.67;;;136.43;;
13345;SDS011;6742;48.036;15.780;2022-12-08T14:26:49;140.90;;;134.20;;
13345;SDS011;6742;48.036;15.780;2022-12-08T14:29:26;149.63;;;142.43;;
13345;SDS011;6742;48.036;15.780;2022-12-08T14:32:03;157.47;;;149.73;;
13345;SDS011;6742;48.036;15.780;2022-12-08T14:34:33;189.93;;;180.53;;
13345;SDS011;6742;48.036;15.780;2022-12-08T14:37:08;165.23;;;156.73;;
13345;SDS011;6742;48.036;15.780;2022-12-08T14:39:37;186.63;;;177.07;;
13345;SDS011;6742;48.036;15.780;2022-12-08T14:42:05;167.03;;;158.80;;
13345;SDS011;6742;48.036;15.780;2022-12-08T14:44:34;174.53;;;165.70;;
13345;SDS011;6742;48.036;15.780;2022-12-08T14:47:05;198.30;;;188.57;;
13345;SDS011;6742;48.036;15.780;2022-12-08T14:49:34;165.40;;;157.13;;
13345;SDS011;6742;48.036;15.780;2022-12-08T14:52:07;186.47;;;176.97;;
13345;SDS011;6742;48.036;15.780;2022-12-08T14:54:36;158.03;;;150.17;;
13345;SDS011;6742;48.036;15.780;2022-12-08T14:59:40;193.03;;;183.50;;
13345;SDS011;6742;48.036;15.780;2022-12-08T15:02:10;173.67;;;165.03;;
13345;SDS011;6742;48.036;15.780;2022-12-08T15:04:47;202.33;;;192.00;;